Time;durP1;ratioP1;P1;durP2;ratioP2;P2;SDS_P1;SDS_P2;PMS_P1;PMS_P2;Temp;Humidity;BMP_temperature;BMP_pressure;BME280_temperature;BME280_humidity;BME280_pressure;Samples;Min_cycle;Max_cycle;Signal;HPM_P1;HPM_P2
2021/06/20 00:00:40;;;;;;;14.93;10.10;;;;;;;;;;4879819;29;20192;-84
2021/06/20 00:03:25;;;;;;;13.68;9.25;;;;;;;;;;4893264;29;20032;-84
2021/06/20 00:06:17;;;;;;;18.40;9.38;;;;;;;;;;4878551;29;20836;-83
2021/06/20 00:09:04;;;;;;;15.65;9.63;;;;;;;;;;4882095;29;20388;-84
2021/06/20 00:11:50;;;;;;;17.15;9.90;;;;;;;;;;4883182;29;20025;-83
2021/06/20 00:14:35;;;;;;;16.40;9.02;;;;;;;;;;4882271;29;20081;-84
2021/06/20 00:17:20;;;;;;;14.73;9.30;;;;;;;;;;4877552;29;20028;-84
2021/06/20 00:20:07;;;;;;;18.23;9.68;;;;;;;;;;4873790;29;20021;-82
2021/06/20 00:22:52;;;;;;;11.00;9.00;;;;;;;;;;4876445;29;20369;-85
2021/06/20 00:25:38;;;;;;;14.52;8.98;;;;;;;;;;4884676;29;20447;-84
2021/06/20 00:28:23;;;;;;;14.20;9.10;;;;;;;;;;4864959;29;20076;-84
2021/06/20 00:31:11;;;;;;;13.00;8.63;;;;;;;;;;4879043;29;20036;-84
2021/06/20 00:33:56;;;;;;;13.57;8.18;;;;;;;;;;4870032;29;20044;-85
2021/06/20 00:36:42;;;;;;;14.80;9.00;;;;;;;;;;4877712;29;20037;-84
2021/06/20 00:39:27;;;;;;;12.48;9.73;;;;;;;;;;4874493;29;20083;-85
2021/06/20 00:42:12;;;;;;;15.93;8.90;;;;;;;;;;4871696;29;20025;-83
2021/06/20 00:44:57;;;;;;;15.32;8.73;;;;;;;;;;4870242;29;20555;-84
2021/06/20 00:47:43;;;;;;;11.20;8.50;;;;;;;;;;4876159;29;20116;-84
2021/06/20 00:50:28;;;;;;;13.80;8.40;;;;;;;;;;4877795;29;20062;-84
2021/06/20 00:53:13;;;;;;;13.18;9.60;;;;;;;;;;4876510;29;20028;-84
2021/06/20 00:55:59;;;;;;;15.23;9.35;;;;;;;;;;4876231;29;20025;-84
2021/06/20 00:58:44;;;;;;;11.63;8.95;;;;;;;;;;4877201;29;20047;-84
2021/06/20 01:01:30;;;;;;;13.32;9.05;;;;;;;;;;4875449;29;20069;-84
2021/06/20 01:04:15;;;;;;;14.27;8.65;;;;;;;;;;4889072;29;20028;-84
2021/06/20 01:07:00;;;;;;;13.48;8.13;;;;;;;;;;4878596;29;20025;-84
2021/06/20 01:09:46;;;;;;;12.13;8.27;;;;;;;;;;4876659;29;20043;-85
2021/06/20 01:12:32;;;;;;;11.60;8.82;;;;;;;;;;4872275;29;20080;-84
2021/06/20 01:15:17;;;;;;;18.85;8.30;;;;;;;;;;4869318;29;20056;-84
2021/06/20 01:18:03;;;;;;;24.35;9.07;;;;;;;;;;4877368;29;20037;-84
2021/06/20 01:20:48;;;;;;;30.23;9.48;;;;;;;;;;4874531;29;20025;-84
2021/06/20 01:23:34;;;;;;;23.50;8.85;;;;;;;;;;4870536;29;20024;-83
2021/06/20 01:26:19;;;;;;;32.78;8.68;;;;;;;;;;4889259;29;20018;-84
2021/06/20 01:29:07;;;;;;;36.72;10.70;;;;;;;;;;4896319;29;20036;-84
2021/06/20 01:31:53;;;;;;;43.13;10.65;;;;;;;;;;4892818;29;20040;-83
2021/06/20 01:34:38;;;;;;;30.50;10.40;;;;;;;;;;4889578;29;20059;-84
2021/06/20 01:37:23;;;;;;;37.78;9.55;;;;;;;;;;4884063;29;20157;-84
2021/06/20 01:40:10;;;;;;;33.33;9.27;;;;;;;;;;4889348;29;20024;-84
2021/06/20 01:42:55;;;;;;;34.30;9.45;;;;;;;;;;4889037;29;20168;-84
2021/06/20 01:45:41;;;;;;;43.30;9.48;;;;;;;;;;4888495;29;20064;-84
2021/06/20 01:48:26;;;;;;;33.92;10.38;;;;;;;;;;4887676;29;20024;-84
2021/06/20 01:51:11;;;;;;;32.65;10.20;;;;;;;;;;4886292;29;20040;-85
2021/06/20 01:53:58;;;;;;;31.17;9.18;;;;;;;;;;4890343;29;20096;-85
2021/06/20 01:56:43;;;;;;;40.08;9.10;;;;;;;;;;4888883;29;20039;-85
2021/06/20 01:59:28;;;;;;;33.53;9.43;;;;;;;;;;4887713;29;20068;-85
2021/06/20 02:02:13;;;;;;;35.40;10.32;;;;;;;;;;4891047;29;20025;-84
2021/06/20 02:04:59;;;;;;;32.35;10.02;;;;;;;;;;4876950;29;20142;-86
2021/06/20 02:07:44;;;;;;;36.85;9.80;;;;;;;;;;4888240;29;20627;-84
2021/06/20 02:10:29;;;;;;;42.15;10.70;;;;;;;;;;4885457;29;20080;-84
2021/06/20 02:13:15;;;;;;;37.50;10.00;;;;;;;;;;4884412;29;20024;-84
2021/06/20 02:16:01;;;;;;;28.08;9.45;;;;;;;;;;4883964;29;20029;-83
2021/06/20 02:18:46;;;;;;;33.38;9.55;;;;;;;;;;4886190;29;20021;-84
2021/06/20 02:21:31;;;;;;;40.53;10.40;;;;;;;;;;4886751;29;20036;-85
2021/06/20 02:24:16;;;;;;;38.53;10.27;;;;;;;;;;4890390;29;20376;-85
2021/06/20 02:27:02;;;;;;;31.05;10.23;;;;;;;;;;4889298;29;20551;-84
2021/06/20 02:29:48;;;;;;;31.50;8.68;;;;;;;;;;4891278;29;20029;-84
2021/06/20 02:32:34;;;;;;;29.02;9.02;;;;;;;;;;4889461;29;20029;-84
2021/06/20 02:35:25;;;;;;;46.95;10.10;;;;;;;;;;4889127;29;20527;-84
2021/06/20 02:38:11;;;;;;;29.83;8.88;;;;;;;;;;4886626;29;20040;-83
2021/06/20 02:41:05;;;;;;;35.05;10.38;;;;;;;;;;4877349;29;20064;-84
2021/06/20 02:43:55;;;;;;;31.60;9.52;;;;;;;;;;4886188;29;20116;-83
2021/06/20 02:46:40;;;;;;;34.30;8.65;;;;;;;;;;4890358;29;20080;-84
2021/06/20 02:49:32;;;;;;;33.10;9.82;;;;;;;;;;4884229;29;20036;-84
2021/06/20 02:52:26;;;;;;;31.25;9.82;;;;;;;;;;4888249;29;20476;-85
2021/06/20 02:55:14;;;;;;;46.53;10.40;;;;;;;;;;4884685;29;20033;-84
2021/06/20 02:58:03;;;;;;;26.92;9.52;;;;;;;;;;4889529;29;20160;-83
2021/06/20 03:00:48;;;;;;;29.23;8.20;;;;;;;;;;4895458;29;20081;-84
2021/06/20 03:03:36;;;;;;;31.67;8.50;;;;;;;;;;4892306;29;20056;-84
2021/06/20 03:06:24;;;;;;;41.20;10.35;;;;;;;;;;4894027;29;20025;-84
2021/06/20 03:09:10;;;;;;;27.57;8.57;;;;;;;;;;4889728;29;20060;-85
2021/06/20 03:12:03;;;;;;;39.47;9.18;;;;;;;;;;4888496;29;20052;-84
2021/06/20 03:14:49;;;;;;;26.95;7.38;;;;;;;;;;4891905;29;20025;-84
2021/06/20 03:17:37;;;;;;;32.58;8.82;;;;;;;;;;4879220;29;20301;-83
2021/06/20 03:20:31;;;;;;;30.17;8.50;;;;;;;;;;4887508;29;20032;-84
2021/06/20 03:23:17;;;;;;;32.53;8.85;;;;;;;;;;4889450;29;20277;-84
2021/06/20 03:26:05;;;;;;;25.05;8.55;;;;;;;;;;4892353;29;20084;-84
2021/06/20 03:28:53;;;;;;;30.63;7.68;;;;;;;;;;4877544;29;20055;-84
2021/06/20 03:31:38;;;;;;;22.38;7.97;;;;;;;;;;4890777;29;20408;-84
2021/06/20 03:34:23;;;;;;;28.90;8.68;;;;;;;;;;4876313;29;20029;-84
2021/06/20 03:37:09;;;;;;;25.35;8.50;;;;;;;;;;4893573;29;20648;-83
2021/06/20 03:39:54;;;;;;;25.08;10.27;;;;;;;;;;4889248;29;20040;-84
2021/06/20 03:42:39;;;;;;;32.45;8.20;;;;;;;;;;4895228;29;20032;-84
2021/06/20 03:45:25;;;;;;;37.72;9.25;;;;;;;;;;4887710;29;20029;-83
2021/06/20 03:48:10;;;;;;;29.98;8.70;;;;;;;;;;4879317;29;20550;-83
2021/06/20 03:50:55;;;;;;;26.02;9.30;;;;;;;;;;4889807;29;20024;-84
2021/06/20 03:53:41;;;;;;;30.23;7.82;;;;;;;;;;4892343;29;20424;-84
2021/06/20 03:56:26;;;;;;;24.92;8.30;;;;;;;;;;4889427;29;20063;-84
2021/06/20 03:59:11;;;;;;;34.92;8.80;;;;;;;;;;4890013;29;20032;-83
2021/06/20 04:01:57;;;;;;;32.08;10.48;;;;;;;;;;4885748;29;20601;-84
2021/06/20 04:04:42;;;;;;;30.38;8.23;;;;;;;;;;4889555;29;20456;-84
2021/06/20 04:07:27;;;;;;;30.35;10.05;;;;;;;;;;4892312;29;20388;-84
2021/06/20 04:10:13;;;;;;;29.25;9.27;;;;;;;;;;4881502;29;20032;-84
2021/06/20 04:12:59;;;;;;;26.10;8.52;;;;;;;;;;4887858;29;20067;-84
2021/06/20 04:15:44;;;;;;;27.35;8.82;;;;;;;;;;4889392;29;20049;-84
2021/06/20 04:18:29;;;;;;;30.38;8.77;;;;;;;;;;4886662;29;20036;-84
2021/06/20 04:21:15;;;;;;;29.38;8.80;;;;;;;;;;4888528;29;20063;-84
2021/06/20 04:24:00;;;;;;;28.17;8.82;;;;;;;;;;4876286;29;20052;-85
2021/06/20 04:26:46;;;;;;;29.70;8.77;;;;;;;;;;4884449;29;20025;-84
2021/06/20 04:29:31;;;;;;;26.45;9.68;;;;;;;;;;4890995;29;20259;-84
2021/06/20 04:32:16;;;;;;;27.20;8.82;;;;;;;;;;4887446;29;20496;-84
2021/06/20 04:35:02;;;;;;;28.00;8.98;;;;;;;;;;4892949;29;20036;-84
2021/06/20 04:37:48;;;;;;;25.63;9.20;;;;;;;;;;4882019;29;20548;-84
2021/06/20 04:40:34;;;;;;;29.55;9.27;;;;;;;;;;4890888;29;20115;-84
2021/06/20 04:46:29;;;;;;;25.05;8.48;;;;;;;;;;4889999;29;20413;-84
2021/06/20 04:49:14;;;;;;;27.88;8.60;;;;;;;;;;4873480;29;20025;-84
2021/06/20 04:51:59;;;;;;;38.30;9.35;;;;;;;;;;4873479;29;20119;-83
2021/06/20 04:54:51;;;;;;;29.05;10.07;;;;;;;;;;4886636;29;20051;-85
2021/06/20 04:57:36;;;;;;;25.67;9.05;;;;;;;;;;4887279;29;20050;-83
2021/06/20 05:00:22;;;;;;;23.27;8.27;;;;;;;;;;4885632;29;20475;-83
2021/06/20 05:03:07;;;;;;;24.50;8.55;;;;;;;;;;4887441;29;20494;-83
2021/06/20 05:05:53;;;;;;;24.17;7.88;;;;;;;;;;4887823;29;20033;-83
2021/06/20 05:08:38;;;;;;;24.48;8.00;;;;;;;;;;4889297;29;20308;-83
2021/06/20 05:11:23;;;;;;;28.00;8.35;;;;;;;;;;4883086;29;20029;-83
2021/06/20 05:14:08;;;;;;;26.30;9.20;;;;;;;;;;4886107;29;20041;-84
2021/06/20 05:16:54;;;;;;;25.58;8.55;;;;;;;;;;4882782;29;20483;-84
2021/06/20 05:19:40;;;;;;;24.35;8.35;;;;;;;;;;4887417;29;20035;-83
2021/06/20 05:22:25;;;;;;;30.35;8.70;;;;;;;;;;4871155;29;20071;-84
2021/06/20 05:25:10;;;;;;;29.15;8.20;;;;;;;;;;4886925;29;20122;-84
2021/06/20 05:27:55;;;;;;;23.38;8.52;;;;;;;;;;4890618;29;20025;-84
2021/06/20 05:30:45;;;;;;;21.13;8.13;;;;;;;;;;4888302;29;20142;-84
2021/06/20 05:33:30;;;;;;;22.00;7.93;;;;;;;;;;4910265;29;20067;-84
2021/06/20 05:36:15;;;;;;;21.33;6.95;;;;;;;;;;4905914;29;20128;-84
2021/06/20 05:39:00;;;;;;;20.23;6.57;;;;;;;;;;4891226;29;20491;-83
2021/06/20 05:41:46;;;;;;;25.15;6.68;;;;;;;;;;4894324;29;20020;-83
2021/06/20 05:44:31;;;;;;;19.08;5.95;;;;;;;;;;4904626;29;20463;-84
2021/06/20 05:47:16;;;;;;;17.65;5.75;;;;;;;;;;4893821;29;20503;-84
2021/06/20 05:50:01;;;;;;;14.88;5.72;;;;;;;;;;4892427;29;20085;-83
2021/06/20 05:52:47;;;;;;;16.77;5.20;;;;;;;;;;4891457;29;20108;-83
2021/06/20 05:55:32;;;;;;;19.55;6.47;;;;;;;;;;4893437;29;20028;-83
2021/06/20 05:58:17;;;;;;;15.90;5.70;;;;;;;;;;4879374;29;20099;-83
2021/06/20 06:01:03;;;;;;;16.65;4.55;;;;;;;;;;4891153;29;20173;-83
2021/06/20 06:03:48;;;;;;;15.68;5.03;;;;;;;;;;4891394;29;20713;-83
2021/06/20 06:06:33;;;;;;;15.75;5.55;;;;;;;;;;4895704;29;20717;-83
2021/06/20 06:09:18;;;;;;;17.05;5.53;;;;;;;;;;4893233;29;20021;-83
2021/06/20 06:12:04;;;;;;;14.55;4.80;;;;;;;;;;4895361;29;20044;-83
2021/06/20 06:14:53;;;;;;;16.45;5.47;;;;;;;;;;4888895;29;20029;-84
2021/06/20 06:17:38;;;;;;;;;;;;;;;;;;4894941;29;20043;-84
2021/06/20 06:20:23;;;;;;;12.52;4.40;;;;;;;;;;4892633;29;20410;-84
2021/06/20 06:23:11;;;;;;;13.02;4.68;;;;;;;;;;4881118;29;20487;-84
2021/06/20 06:25:56;;;;;;;14.02;4.75;;;;;;;;;;4893072;29;20016;-84
2021/06/20 06:28:42;;;;;;;13.18;4.20;;;;;;;;;;4886261;29;20036;-83
2021/06/20 06:31:27;;;;;;;11.38;4.35;;;;;;;;;;4876431;29;20041;-84
2021/06/20 06:34:12;;;;;;;18.45;5.13;;;;;;;;;;4885593;29;20028;-83
2021/06/20 06:36:57;;;;;;;13.73;4.60;;;;;;;;;;4887457;29;20094;-83
2021/06/20 06:39:43;;;;;;;14.65;3.50;;;;;;;;;;4891725;29;20032;-84
2021/06/20 06:42:28;;;;;;;12.90;3.92;;;;;;;;;;4884198;29;20050;-84
2021/06/20 06:45:15;;;;;;;14.13;4.47;;;;;;;;;;4877362;29;20036;-83
2021/06/20 06:48:01;;;;;;;15.10;3.80;;;;;;;;;;4887307;29;20472;-83
2021/06/20 06:50:46;;;;;;;9.02;3.35;;;;;;;;;;4902055;29;20056;-84
2021/06/20 06:53:31;;;;;;;12.32;4.10;;;;;;;;;;4876415;29;20024;-84
2021/06/20 06:56:17;;;;;;;16.52;4.70;;;;;;;;;;4877376;29;20527;-85
2021/06/20 06:59:03;;;;;;;11.68;4.57;;;;;;;;;;4878588;29;20115;-85
2021/06/20 07:01:48;;;;;;;18.20;5.43;;;;;;;;;;4877554;29;20033;-85
2021/06/20 07:04:33;;;;;;;22.10;5.22;;;;;;;;;;4891509;29;20547;-84
2021/06/20 07:07:18;;;;;;;15.07;4.32;;;;;;;;;;4878453;29;20020;-85
2021/06/20 07:10:04;;;;;;;14.35;4.05;;;;;;;;;;4874982;29;20028;-85
2021/06/20 07:12:50;;;;;;;16.38;4.72;;;;;;;;;;4894483;29;20116;-84
2021/06/20 07:15:35;;;;;;;12.82;4.47;;;;;;;;;;4889631;29;20024;-84
2021/06/20 07:18:20;;;;;;;12.48;4.25;;;;;;;;;;4870867;29;20021;-84
2021/06/20 07:21:06;;;;;;;17.77;5.40;;;;;;;;;;4883763;29;20059;-85
2021/06/20 07:23:51;;;;;;;22.35;5.82;;;;;;;;;;4882758;29;20096;-84
2021/06/20 07:26:36;;;;;;;23.90;5.88;;;;;;;;;;4892052;29;20043;-84
2021/06/20 07:29:22;;;;;;;23.83;7.25;;;;;;;;;;4888461;29;20029;-83
2021/06/20 07:32:07;;;;;;;21.08;8.63;;;;;;;;;;4890070;29;20048;-83
2021/06/20 07:34:53;;;;;;;27.80;15.20;;;;;;;;;;4885220;29;20065;-84
2021/06/20 07:37:39;;;;;;;24.20;9.85;;;;;;;;;;4896819;29;20028;-81
2021/06/20 07:40:24;;;;;;;18.52;5.93;;;;;;;;;;4890534;29;20116;-80
2021/06/20 07:43:09;;;;;;;20.25;5.95;;;;;;;;;;4900960;29;20062;-82
2021/06/20 07:45:56;;;;;;;21.17;6.38;;;;;;;;;;4889579;29;20040;-82
2021/06/20 07:48:41;;;;;;;24.63;8.25;;;;;;;;;;4889299;29;20036;-82
2021/06/20 07:51:37;;;;;;;21.63;6.30;;;;;;;;;;4889880;29;20111;-83
2021/06/20 07:54:23;;;;;;;18.35;6.45;;;;;;;;;;4888746;29;20127;-83
2021/06/20 07:57:08;;;;;;;20.90;6.60;;;;;;;;;;4891756;29;20028;-81
2021/06/20 07:59:54;;;;;;;23.83;6.85;;;;;;;;;;4887053;29;20476;-82
2021/06/20 08:02:41;;;;;;;18.73;5.95;;;;;;;;;;4888227;29;20518;-82
2021/06/20 08:05:27;;;;;;;20.40;6.47;;;;;;;;;;4887032;29;20092;-81
2021/06/20 08:08:12;;;;;;;15.95;7.10;;;;;;;;;;4885810;29;20092;-82
2021/06/20 08:11:20;;;;;;;20.00;7.82;;;;;;;;;;4904075;29;20549;-82
2021/06/20 08:14:14;;;;;;;21.98;8.07;;;;;;;;;;4889735;29;20103;-80
2021/06/20 08:17:10;;;;;;;19.58;6.70;;;;;;;;;;4888330;29;20080;-81
2021/06/20 08:19:55;;;;;;;18.38;6.07;;;;;;;;;;4888387;29;20032;-80
2021/06/20 08:22:41;;;;;;;21.13;6.65;;;;;;;;;;4890403;29;20499;-80
2021/06/20 08:25:26;;;;;;;30.33;6.95;;;;;;;;;;4887407;29;20712;-80
2021/06/20 08:28:11;;;;;;;23.98;6.85;;;;;;;;;;4891047;29;20520;-80
2021/06/20 08:30:56;;;;;;;19.52;7.43;;;;;;;;;;4887652;29;20029;-79
2021/06/20 08:33:42;;;;;;;21.83;7.30;;;;;;;;;;4892995;29;20047;-80
2021/06/20 08:36:27;;;;;;;15.25;6.68;;;;;;;;;;4889670;29;20028;-79
2021/06/20 08:39:12;;;;;;;16.13;5.93;;;;;;;;;;4893823;29;20051;-79
2021/06/20 08:41:58;;;;;;;16.10;7.13;;;;;;;;;;4892523;29;20080;-80
2021/06/20 08:44:43;;;;;;;24.10;7.00;;;;;;;;;;4896700;29;20707;-79
2021/06/20 08:47:28;;;;;;;19.60;5.80;;;;;;;;;;4895450;29;20032;-80
2021/06/20 08:50:13;;;;;;;14.88;6.65;;;;;;;;;;4897011;29;20027;-80
2021/06/20 08:52:59;;;;;;;23.15;6.07;;;;;;;;;;4895392;29;20554;-80
2021/06/20 08:55:44;;;;;;;23.98;12.80;;;;;;;;;;4893487;29;20479;-80
2021/06/20 08:58:33;;;;;;;23.20;10.60;;;;;;;;;;4890763;29;20041;-79
2021/06/20 09:01:18;;;;;;;19.85;6.80;;;;;;;;;;4896106;29;20024;-81
2021/06/20 09:04:03;;;;;;;21.73;7.03;;;;;;;;;;4897669;29;20395;-79
2021/06/20 09:06:49;;;;;;;21.33;6.15;;;;;;;;;;4894902;29;20031;-79
2021/06/20 09:09:35;;;;;;;14.98;5.72;;;;;;;;;;4894075;29;20874;-79
2021/06/20 09:12:20;;;;;;;16.50;5.80;;;;;;;;;;4892185;29;20024;-80
2021/06/20 09:15:05;;;;;;;17.67;5.47;;;;;;;;;;4892644;29;20515;-79
2021/06/20 09:17:54;;;;;;;25.70;7.13;;;;;;;;;;4893953;29;20123;-80
2021/06/20 09:20:40;;;;;;;21.33;5.95;;;;;;;;;;4887723;29;20499;-80
2021/06/20 09:23:26;;;;;;;22.75;11.77;;;;;;;;;;4899320;29;20028;-80
2021/06/20 09:26:12;;;;;;;20.85;7.05;;;;;;;;;;4894743;29;20028;-80
2021/06/20 09:28:57;;;;;;;18.40;6.55;;;;;;;;;;4893810;29;20048;-79
2021/06/20 09:31:44;;;;;;;19.23;7.00;;;;;;;;;;4891381;29;20043;-80
2021/06/20 09:34:40;;;;;;;22.08;6.60;;;;;;;;;;4872994;29;20896;-80
2021/06/20 09:37:27;;;;;;;17.63;5.30;;;;;;;;;;4894550;29;20048;-80
2021/06/20 09:40:12;;;;;;;19.63;5.45;;;;;;;;;;4892330;29;20046;-80
2021/06/20 09:42:58;;;;;;;17.85;5.68;;;;;;;;;;4894064;29;20066;-79
2021/06/20 09:45:44;;;;;;;14.13;5.47;;;;;;;;;;4878877;29;20031;-79
2021/06/20 09:48:30;;;;;;;17.88;5.53;;;;;;;;;;4893142;29;20118;-78
2021/06/20 09:51:17;;;;;;;20.17;5.20;;;;;;;;;;4889196;29;20021;-79
2021/06/20 09:54:05;;;;;;;17.98;5.15;;;;;;;;;;4889501;29;20024;-79
2021/06/20 09:56:50;;;;;;;19.33;5.70;;;;;;;;;;4895751;29;20028;-79
2021/06/20 09:59:41;;;;;;;11.10;4.40;;;;;;;;;;4893121;29;20945;-79
2021/06/20 10:02:30;;;;;;;19.33;5.40;;;;;;;;;;4894974;29;20032;-80
2021/06/20 10:05:16;;;;;;;;;;;;;;;;;;4905733;29;20123;-80
2021/06/20 10:08:02;;;;;;;11.40;4.22;;;;;;;;;;4895742;29;19966;-79
2021/06/20 10:10:47;;;;;;;18.42;4.70;;;;;;;;;;4889223;29;20033;-80
2021/06/20 10:13:33;;;;;;;16.50;4.07;;;;;;;;;;4891669;29;20055;-79
2021/06/20 10:16:37;;;;;;;15.93;4.70;;;;;;;;;;4891757;29;20021;-79
2021/06/20 10:19:27;;;;;;;12.13;3.55;;;;;;;;;;4877336;29;20250;-78
2021/06/20 10:22:15;;;;;;;13.93;3.17;;;;;;;;;;4889020;29;20016;-78
2021/06/20 10:25:00;;;;;;;10.13;5.05;;;;;;;;;;4889753;29;20029;-79
2021/06/20 10:27:55;;;;;;;12.52;4.10;;;;;;;;;;4894084;29;20047;-79
2021/06/20 10:30:45;;;;;;;15.30;3.38;;;;;;;;;;4891862;29;20063;-79
2021/06/20 10:33:32;;;;;;;8.27;2.97;;;;;;;;;;4892382;29;20056;-78
2021/06/20 10:36:17;;;;;;;9.88;3.50;;;;;;;;;;4891113;29;20040;-79
2021/06/20 10:39:10;;;;;;;7.63;2.40;;;;;;;;;;4888039;29;20032;-79
2021/06/20 10:42:08;;;;;;;9.95;3.28;;;;;;;;;;4891845;29;20029;-79
2021/06/20 10:44:53;;;;;;;12.30;3.40;;;;;;;;;;4895333;29;20236;-79
2021/06/20 10:47:40;;;;;;;11.43;4.47;;;;;;;;;;4887902;29;20028;-79
2021/06/20 10:50:35;;;;;;;11.32;3.92;;;;;;;;;;4895985;29;20059;-80
2021/06/20 10:53:21;;;;;;;14.30;3.50;;;;;;;;;;4895831;29;20076;-79
2021/06/20 10:56:07;;;;;;;12.25;5.40;;;;;;;;;;4891610;29;20463;-78
2021/06/20 10:58:52;;;;;;;7.55;4.03;;;;;;;;;;4891076;29;20036;-78
2021/06/20 11:01:39;;;;;;;12.48;3.10;;;;;;;;;;4888555;29;20391;-79
2021/06/20 11:04:24;;;;;;;10.40;4.45;;;;;;;;;;4907958;29;20028;-79
2021/06/20 11:07:09;;;;;;;16.55;5.25;;;;;;;;;;4893936;29;20032;-79
2021/06/20 11:09:55;;;;;;;14.52;6.15;;;;;;;;;;4880130;29;20419;-80
2021/06/20 11:12:41;;;;;;;33.50;18.88;;;;;;;;;;4903791;29;20111;-79
2021/06/20 11:15:27;;;;;;;10.73;3.63;;;;;;;;;;4895007;29;20036;-79
2021/06/20 11:18:12;;;;;;;14.52;3.63;;;;;;;;;;4894056;29;20483;-79
2021/06/20 11:20:57;;;;;;;17.65;6.95;;;;;;;;;;4897619;29;20028;-79
2021/06/20 11:23:42;;;;;;;14.68;4.35;;;;;;;;;;4896185;29;20059;-80
2021/06/20 11:26:28;;;;;;;10.43;3.13;;;;;;;;;;4898682;29;20031;-79
2021/06/20 11:29:13;;;;;;;11.32;3.63;;;;;;;;;;4882090;29;20024;-79
2021/06/20 11:32:00;;;;;;;12.90;4.05;;;;;;;;;;4893412;29;20040;-80
2021/06/20 11:34:49;;;;;;;13.70;4.63;;;;;;;;;;4897231;29;20394;-80
2021/06/20 11:37:36;;;;;;;19.25;5.20;;;;;;;;;;4892784;29;20099;-80
2021/06/20 11:40:24;;;;;;;12.57;4.88;;;;;;;;;;4897245;29;20487;-80
2021/06/20 11:43:09;;;;;;;16.27;4.45;;;;;;;;;;4888767;29;20047;-80
2021/06/20 11:45:55;;;;;;;14.55;4.63;;;;;;;;;;4889683;29;20028;-79
2021/06/20 11:48:49;;;;;;;10.05;3.58;;;;;;;;;;4891260;29;20107;-81
2021/06/20 11:51:47;;;;;;;11.90;4.32;;;;;;;;;;4898768;29;20507;-80
2021/06/20 11:54:32;;;;;;;18.00;4.30;;;;;;;;;;4893859;29;20611;-80
2021/06/20 11:57:24;;;;;;;17.05;3.88;;;;;;;;;;4884570;29;20546;-80
2021/06/20 12:00:13;;;;;;;15.15;4.25;;;;;;;;;;4893849;29;20023;-80
2021/06/20 12:03:01;;;;;;;16.13;3.95;;;;;;;;;;4896679;29;20063;-80
2021/06/20 12:05:48;;;;;;;11.63;3.42;;;;;;;;;;4893020;29;20032;-80
2021/06/20 12:08:36;;;;;;;13.70;3.83;;;;;;;;;;4893816;29;20108;-80
2021/06/20 12:11:30;;;;;;;15.88;4.28;;;;;;;;;;4894259;29;20443;-80
2021/06/20 12:14:21;;;;;;;12.27;4.70;;;;;;;;;;4892707;29;20039;-80
2021/06/20 12:17:06;;;;;;;14.57;3.90;;;;;;;;;;4891087;29;20028;-79
2021/06/20 12:19:51;;;;;;;15.88;4.10;;;;;;;;;;4892003;29;20031;-79
2021/06/20 12:22:44;;;;;;;18.63;4.35;;;;;;;;;;4899700;29;20068;-79
2021/06/20 12:25:29;;;;;;;15.13;4.63;;;;;;;;;;4895756;29;20435;-79
2021/06/20 12:28:15;;;;;;;23.30;5.80;;;;;;;;;;4904364;29;20138;-80
2021/06/20 12:31:00;;;;;;;17.52;6.72;;;;;;;;;;4888722;29;20341;-79
2021/06/20 12:33:45;;;;;;;17.35;5.03;;;;;;;;;;4876277;29;20024;-80
2021/06/20 12:36:31;;;;;;;20.70;5.43;;;;;;;;;;4876464;29;20032;-79
2021/06/20 12:39:16;;;;;;;19.65;5.13;;;;;;;;;;4879646;29;20753;-79
2021/06/20 12:42:01;;;;;;;14.27;4.75;;;;;;;;;;4877400;29;20088;-79
2021/06/20 12:44:48;;;;;;;23.10;5.85;;;;;;;;;;4879574;29;20036;-80
2021/06/20 12:47:34;;;;;;;18.73;4.95;;;;;;;;;;4876688;29;20075;-80
2021/06/20 12:50:38;;;;;;;24.30;5.50;;;;;;;;;;4862253;29;20021;-80
2021/06/20 12:53:27;;;;;;;24.35;5.30;;;;;;;;;;4877321;29;20020;-79
2021/06/20 12:56:23;;;;;;;20.90;5.15;;;;;;;;;;4854428;29;20060;-80
2021/06/20 12:59:09;;;;;;;21.88;5.57;;;;;;;;;;4879536;29;20108;-80
2021/06/20 13:01:56;;;;;;;23.83;6.93;;;;;;;;;;4876579;29;20040;-80
2021/06/20 13:04:46;;;;;;;20.05;5.57;;;;;;;;;;4879143;29;20590;-80
2021/06/20 13:07:41;;;;;;;18.67;4.68;;;;;;;;;;4876243;29;20594;-79
2021/06/20 13:10:26;;;;;;;18.85;4.85;;;;;;;;;;4877019;29;20028;-80
2021/06/20 13:13:12;;;;;;;22.63;5.40;;;;;;;;;;4872747;29;20416;-79
2021/06/20 13:15:58;;;;;;;31.80;20.35;;;;;;;;;;4877260;29;20032;-79
2021/06/20 13:18:43;;;;;;;40.60;22.90;;;;;;;;;;4878551;29;20024;-79
2021/06/20 13:21:28;;;;;;;25.13;5.82;;;;;;;;;;4876612;29;20036;-80
2021/06/20 13:24:14;;;;;;;28.10;6.13;;;;;;;;;;4878488;29;20025;-81
2021/06/20 13:26:59;;;;;;;21.23;5.85;;;;;;;;;;4874679;29;20040;-80
2021/06/20 13:29:45;;;;;;;19.90;5.40;;;;;;;;;;4878440;29;20036;-79
2021/06/20 13:32:30;;;;;;;26.25;5.68;;;;;;;;;;4871338;29;20145;-80
2021/06/20 13:35:16;;;;;;;23.33;6.40;;;;;;;;;;4887432;29;20033;-80
2021/06/20 13:38:02;;;;;;;21.73;6.88;;;;;;;;;;4889539;29;20036;-80
2021/06/20 13:40:47;;;;;;;23.33;6.30;;;;;;;;;;4889115;29;20425;-80
2021/06/20 13:43:32;;;;;;;32.72;7.32;;;;;;;;;;4883911;29;20036;-79
2021/06/20 13:46:17;;;;;;;27.10;5.82;;;;;;;;;;4884339;29;20059;-80
2021/06/20 13:49:02;;;;;;;24.95;5.97;;;;;;;;;;4885379;29;20385;-79
2021/06/20 13:51:48;;;;;;;27.10;5.85;;;;;;;;;;4884087;29;20080;-79
2021/06/20 13:54:33;;;;;;;26.40;6.47;;;;;;;;;;4887129;29;20624;-80
2021/06/20 13:57:19;;;;;;;25.00;6.72;;;;;;;;;;4872728;29;20032;-80
2021/06/20 14:00:06;;;;;;;22.45;5.68;;;;;;;;;;4890406;29;20035;-81
2021/06/20 14:02:51;;;;;;;27.98;7.03;;;;;;;;;;4888329;29;20119;-81
2021/06/20 14:05:36;;;;;;;29.15;7.38;;;;;;;;;;4876719;29;20076;-80
2021/06/20 14:08:21;;;;;;;28.92;6.93;;;;;;;;;;4884447;29;20506;-81
2021/06/20 14:11:07;;;;;;;38.97;7.38;;;;;;;;;;4888105;29;20028;-80
2021/06/20 14:13:52;;;;;;;30.48;7.30;;;;;;;;;;4888515;29;20709;-81
2021/06/20 14:16:37;;;;;;;26.27;7.82;;;;;;;;;;4887237;29;20432;-81
2021/06/20 14:19:22;;;;;;;27.35;6.50;;;;;;;;;;4887653;29;20022;-81
2021/06/20 14:22:08;;;;;;;32.40;6.38;;;;;;;;;;4884614;29;20033;-81
2021/06/20 14:24:53;;;;;;;32.28;8.32;;;;;;;;;;4872953;29;20067;-81
2021/06/20 14:27:38;;;;;;;31.63;7.22;;;;;;;;;;4885159;29;20031;-81
2021/06/20 14:30:23;;;;;;;25.38;6.65;;;;;;;;;;4888414;29;20021;-81
2021/06/20 14:33:09;;;;;;;22.08;6.93;;;;;;;;;;4894175;29;20495;-80
2021/06/20 14:35:54;;;;;;;25.33;6.80;;;;;;;;;;4892091;29;20035;-80
2021/06/20 14:38:39;;;;;;;30.08;10.88;;;;;;;;;;4892902;29;20103;-80
2021/06/20 14:41:25;;;;;;;29.73;8.40;;;;;;;;;;4887755;29;20035;-81
2021/06/20 14:44:11;;;;;;;24.50;8.20;;;;;;;;;;4893811;29;20036;-80
2021/06/20 14:46:57;;;;;;;32.60;6.97;;;;;;;;;;4877897;29;20031;-80
2021/06/20 14:49:42;;;;;;;31.73;7.10;;;;;;;;;;4893070;29;20420;-80
2021/06/20 14:52:27;;;;;;;26.95;7.75;;;;;;;;;;4894418;29;20460;-81
2021/06/20 14:55:13;;;;;;;31.80;12.10;;;;;;;;;;4894867;29;20051;-80
2021/06/20 14:57:58;;;;;;;26.20;7.35;;;;;;;;;;4897343;29;20043;-80
2021/06/20 15:00:44;;;;;;;31.10;8.85;;;;;;;;;;4894253;29;20032;-81
2021/06/20 15:03:29;;;;;;;33.33;8.98;;;;;;;;;;4899377;29;20020;-80
2021/06/20 15:06:15;;;;;;;26.75;7.00;;;;;;;;;;4894918;29;20118;-81
2021/06/20 15:09:01;;;;;;;29.02;7.25;;;;;;;;;;4898101;29;20024;-80
2021/06/20 15:11:46;;;;;;;32.90;7.07;;;;;;;;;;4880249;29;20028;-80
2021/06/20 15:14:32;;;;;;;25.85;5.85;;;;;;;;;;4898021;29;20040;-81
2021/06/20 15:17:17;;;;;;;30.88;7.22;;;;;;;;;;4894680;29;20112;-82
2021/06/20 15:20:03;;;;;;;25.90;7.35;;;;;;;;;;4898345;29;20028;-81
2021/06/20 15:22:48;;;;;;;29.58;7.22;;;;;;;;;;4896838;29;20032;-81
2021/06/20 15:25:33;;;;;;;30.88;7.60;;;;;;;;;;4897132;29;20126;-81
2021/06/20 15:28:19;;;;;;;31.92;7.95;;;;;;;;;;4892149;29;20028;-80
2021/06/20 15:31:04;;;;;;;25.02;6.28;;;;;;;;;;4891010;29;20493;-81
2021/06/20 15:33:49;;;;;;;23.30;6.03;;;;;;;;;;4859442;29;20184;-81
2021/06/20 15:36:35;;;;;;;26.98;7.68;;;;;;;;;;4873731;29;20040;-80
2021/06/20 15:39:20;;;;;;;28.52;7.15;;;;;;;;;;4873982;29;20037;-80
2021/06/20 15:42:06;;;;;;;34.60;11.32;;;;;;;;;;4878594;29;20025;-80
2021/06/20 15:44:51;;;;;;;25.98;9.88;;;;;;;;;;4876318;29;20391;-80
2021/06/20 15:47:37;;;;;;;30.60;6.65;;;;;;;;;;4874619;29;20040;-81
2021/06/20 15:50:27;;;;;;;29.67;6.55;;;;;;;;;;4880251;29;20016;-80
2021/06/20 15:53:12;;;;;;;29.70;8.48;;;;;;;;;;4877577;29;20101;-81
2021/06/20 15:56:02;;;;;;;34.67;7.90;;;;;;;;;;4874888;29;20025;-81
2021/06/20 15:58:47;;;;;;;28.77;9.77;;;;;;;;;;4877579;29;20095;-80
2021/06/20 16:01:33;;;;;;;32.67;7.72;;;;;;;;;;4875438;29;20475;-80
2021/06/20 16:04:18;;;;;;;30.27;7.38;;;;;;;;;;4873806;29;20169;-79
2021/06/20 16:07:03;;;;;;;26.00;6.88;;;;;;;;;;4865166;29;20043;-82
2021/06/20 16:09:49;;;;;;;29.35;7.82;;;;;;;;;;4877223;29;20119;-79
2021/06/20 16:12:34;;;;;;;31.73;7.75;;;;;;;;;;4879449;29;20025;-79
2021/06/20 16:15:19;;;;;;;22.10;7.00;;;;;;;;;;4877265;29;20052;-80
2021/06/20 16:18:05;;;;;;;29.75;7.63;;;;;;;;;;4863327;29;20040;-80
2021/06/20 16:20:50;;;;;;;31.88;12.35;;;;;;;;;;4863163;29;20037;-81
2021/06/20 16:23:35;;;;;;;28.80;8.35;;;;;;;;;;4875721;29;20040;-81